Latest Weather Observations for Point Avoid

IDS60801

Issued at 8:11 am CST Sunday 16 June 2019 (issued every 10 minutes, with the page automatically refreshed every 10 minutes)

About weather observations | Map of weather stations | Latest weather observations for SA | Other Formats
Station Details ID: 018230 Name: POINT AVOID Lat: -34.67 Lon: 135.34 Height: 35.0 m
Data from the previous 72 hours. | See also: Recent months at Point Avoid
Date/Time
CST
Temp
°C
App
Temp
°C
Dew
Point
°C
Rel
Hum
%
Delta-T
°C
Wind Press
QNH
hPa
Press
MSL
hPa
Rain since
9am
mm
Dir  Spd
km/h
Gust
km/h
Spd
kts
Gust
kts
16/08:00am 9.4 8.0 9.4 100 0.0 NE 7 9 4 5 1019.0 1019.0 16.2
16/07:30am 9.2 7.7 9.2 100 0.0 NE 7 9 4 5 1018.7 1018.7 16.2
16/07:00am 9.6 8.2 9.6 100 0.0 NNE 7 9 4 5 1018.3 1018.3 16.2
16/06:30am 10.3 8.7 10.3 100 0.0 NNE 9 13 5 7 1017.9 1017.9 16.2
16/06:00am 10.4 8.1 10.4 100 0.0 N 13 19 7 10 1017.8 1017.8 16.2
16/05:30am 11.3 8.5 11.3 100 0.0 N 17 22 9 12 1017.5 1017.5 16.2
16/05:00am 11.6 8.3 11.6 100 0.0 N 20 32 11 17 1017.0 1017.0 16.2
16/04:30am 11.6 7.9 11.6 100 0.0 N 22 30 12 16 1017.0 1017.0 15.6
16/04:00am 11.4 8.6 11.4 100 0.0 N 17 24 9 13 1017.2 1017.2 14.2
16/03:30am 11.9 8.3 11.9 100 0.0 NNW 22 35 12 19 1017.4 1017.4 10.4
16/03:00am 11.9 8.9 11.9 100 0.0 N 19 24 10 13 1017.2 1017.2 10.0
16/02:30am 11.4 7.3 11.4 100 0.0 N 24 32 13 17 1017.0 1017.0 10.0
16/02:00am 11.3 8.1 11.3 100 0.0 N 19 24 10 13 1017.1 1017.1 10.0
16/01:30am 11.3 7.5 11.3 100 0.0 NNW 22 30 12 16 1017.3 1017.3 9.8
16/01:00am 11.1 8.6 11.1 100 0.0 WNW 15 19 8 10 1017.5 1017.5 8.4
16/12:30am 11.7 9.0 11.7 100 0.0 NNW 17 26 9 14 1017.8 1017.8 7.6
16/12:00am 11.6 8.3 11.6 100 0.0 NNW 20 30 11 16 1018.0 1018.0 6.2
 
Date/Time
CST
Temp
°C
App
Temp
°C
Dew
Point
°C
Rel
Hum
%
Delta-T
°C
Wind Press
QNH
hPa
Press
MSL
hPa
Rain since
9am
mm
Dir  Spd
km/h
Gust
km/h
Spd
kts
Gust
kts
15/11:30pm 11.8 7.8 11.8 100 0.0 N 24 33 13 18 1017.8 1017.8 4.8
15/11:00pm 12.4 7.5 12.4 100 0.0 NW 30 39 16 21 1018.1 1018.1 3.4
15/10:30pm 12.2 6.6 12.2 100 0.0 WNW 33 48 18 26 1018.1 1018.1 3.2
15/10:26pm 12.3 7.7 12.3 100 0.0 WNW 28 48 15 26 1018.0 1018.0 3.2
15/10:00pm 12.6 9.2 12.6 100 0.0 W 22 28 12 15 1018.2 1018.2 3.2
15/09:30pm 14.0 11.7 14.0 100 0.0 NNW 19 28 10 15 1017.8 1017.8 3.2
15/09:00pm 13.8 11.8 13.8 100 0.0 N 17 24 9 13 1017.8 1017.8 3.2
15/08:30pm 14.0 12.4 14.0 100 0.0 NNW 15 20 8 11 1017.9 1017.9 3.2
15/08:00pm 14.0 11.5 14.0 100 0.0 NNW 20 26 11 14 1017.9 1017.9 3.2
15/07:30pm 13.6 10.9 13.6 100 0.0 NW 20 28 11 15 1018.1 1018.1 3.2
15/07:00pm 14.1 11.6 14.1 100 0.0 NNW 20 28 11 15 1018.0 1018.0 3.2
15/06:30pm 13.4 11.2 13.4 100 0.0 N 17 24 9 13 1017.9 1017.9 3.2
15/06:00pm 12.7 10.3 12.7 100 0.0 N 17 24 9 13 1017.9 1017.9 3.2
15/05:30pm 12.8 10.4 12.8 100 0.0 N 17 22 9 12 1017.8 1017.8 3.2
15/05:00pm 12.6 10.2 12.6 100 0.0 NNW 17 20 9 11 1017.7 1017.7 3.2
15/04:30pm 12.6 10.2 12.6 100 0.0 NW 17 22 9 12 1018.0 1018.0 3.0
15/04:00pm 14.9 11.2 14.9 100 0.0 NNW 28 37 15 20 1018.2 1018.2 2.4
15/03:30pm 15.4 11.9 15.4 100 0.0 NNW 28 35 15 19 1018.0 1018.0 2.4
15/03:00pm 14.7 12.0 14.7 100 0.0 NNW 22 32 12 17 1017.9 1017.9 2.4
15/02:30pm 14.1 12.2 14.1 100 0.0 NNW 17 24 9 13 1018.0 1018.0 2.4
15/02:00pm 12.6 9.6 12.6 100 0.0 NW 20 30 11 16 1018.4 1018.4 2.4
15/01:30pm 13.7 8.2 13.7 100 0.0 NW 35 54 19 29 1018.8 1018.8 0.2
15/01:29pm 13.8 8.7 13.8 100 0.0 NW 33 54 18 29 1018.7 1018.7 0.2
15/01:26pm 15.2 10.6 15.2 100 0.0 NNW 33 54 18 29 1018.8 1018.8 0.0
15/01:00pm 16.5 14.5 16.5 100 0.0 NNW 22 28 12 15 1018.7 1018.7 0.0
15/12:30pm 16.8 14.9 16.8 100 0.0 NNW 22 28 12 15 1019.2 1019.2 0.0
15/12:00pm 16.3 14.5 16.1 99 0.1 NNW 20 28 11 15 1019.7 1019.7 0.0
15/11:30am 14.9 14.0 14.9 100 0.0 N 13 20 7 11 1020.2 1020.2 0.0
15/11:00am 14.4 13.3 14.4 100 0.0 NNE 13 19 7 10 1020.4 1020.4 0.0
15/10:30am 13.3 11.9 13.3 100 0.0 NNE 13 19 7 10 1020.5 1020.5 0.0
15/10:00am 12.1 9.9 12.1 100 0.0 NNE 15 20 8 11 1020.4 1020.4 0.0
15/09:30am 11.3 9.2 11.3 100 0.0 NNE 13 17 7 9 1020.5 1020.5 0.0
15/09:00am 10.8 9.0 10.8 100 0.0 NNE 11 17 6 9 1020.4 1020.4 0.8
15/08:30am 10.6 9.5 10.6 100 0.0 NE 7 9 4 5 1020.3 1020.3 0.8
15/08:00am 9.0 7.6 9.0 100 0.0 E 6 7 3 4 1020.1 1020.1 0.8
15/07:30am 9.8 8.5 9.8 100 0.0 NE 7 9 4 5 1020.0 1020.0 0.8
15/07:00am 9.5 7.7 9.5 100 0.0 NE 9 13 5 7 1019.8 1019.8 0.8
15/06:30am 9.5 8.3 9.5 100 0.0 NE 6 9 3 5 1019.7 1019.7 0.8
15/06:00am 10.6 9.7 10.6 100 0.0 NNE 6 7 3 4 1019.5 1019.5 0.8
15/05:30am 10.9 9.9 10.9 100 0.0 NE 7 9 4 5 1019.4 1019.4 0.8
15/05:00am 11.2 10.3 11.2 100 0.0 NNE 7 11 4 6 1019.4 1019.4 0.8
15/04:30am 11.2 10.3 11.2 100 0.0 NNE 7 11 4 6 1019.6 1019.6 0.8
15/04:00am 10.9 9.9 10.9 100 0.0 NE 7 9 4 5 1019.6 1019.6 0.8
15/03:30am 11.1 10.1 11.1 100 0.0 NNE 7 11 4 6 1019.7 1019.7 0.8
15/03:00am 10.8 9.4 10.8 100 0.0 NE 9 13 5 7 1019.7 1019.7 0.8
15/02:30am 12.1 10.8 11.3 95 0.4 WNW 9 11 5 6 1019.9 1019.9 0.8
15/02:00am 12.1 10.8 11.2 94 0.5 W 9 13 5 7 1019.8 1019.8 0.8
15/01:30am 12.9 11.4 11.8 93 0.6 WNW 11 15 6 8 1020.2 1020.2 0.8
15/01:00am 12.7 11.5 11.6 93 0.6 WNW 9 13 5 7 1020.3 1020.3 0.8
15/12:30am 12.7 11.1 11.4 92 0.7 W 11 13 6 7 1020.3 1020.3 0.8
15/12:00am 13.4 11.8 11.6 89 1.0 W 11 13 6 7 1020.4 1020.4 0.8
 
Date/Time
CST
Temp
°C
App
Temp
°C
Dew
Point
°C
Rel
Hum
%
Delta-T
°C
Wind Press
QNH
hPa
Press
MSL
hPa
Rain since
9am
mm
Dir  Spd
km/h
Gust
km/h
Spd
kts
Gust
kts
14/11:30pm 13.9 12.2 12.5 91 0.8 W 13 17 7 9 1020.5 1020.5 0.8
14/11:00pm 13.4 12.7 13.2 99 0.1 W 9 13 5 7 1020.4 1020.4 0.8
14/10:30pm 12.7 11.5 12.7 100 0.0 W 11 15 6 8 1020.5 1020.5 0.8
14/10:00pm 13.5 13.3 13.5 100 0.0 NW 7 9 4 5 1020.5 1020.5 0.8
14/09:30pm 13.3 13.0 13.3 100 0.0 NW 7 13 4 7 1020.7 1020.7 0.8
14/09:00pm 13.2 12.5 13.2 100 0.0 NNW 9 11 5 6 1020.6 1020.6 0.8
14/08:30pm 13.4 12.4 13.4 100 0.0 NNW 11 15 6 8 1020.6 1020.6 0.8
14/08:00pm 13.7 12.0 13.7 100 0.0 NW 15 22 8 12 1020.6 1020.6 0.8
14/07:30pm 14.4 14.1 14.4 100 0.0 NW 9 13 5 7 1020.3 1020.3 0.8
14/07:00pm 14.2 13.1 14.2 100 0.0 W 13 17 7 9 1020.0 1020.0 0.8
14/06:30pm 13.3 11.9 13.3 100 0.0 SW 13 19 7 10 1019.8 1019.8 0.8
14/06:00pm 13.8 11.2 13.8 100 0.0 WSW 20 32 11 17 1019.5 1019.5 0.8
14/05:30pm 14.8 13.7 14.3 97 0.3 WNW 13 17 7 9 1019.3 1019.3 0.8
14/05:00pm 15.1 14.0 14.3 95 0.5 WNW 13 15 7 8 1019.3 1019.3 0.8
14/04:30pm 15.3 14.7 14.5 95 0.5 WNW 11 13 6 7 1019.1 1019.1 0.8
14/04:00pm 16.1 15.5 14.5 90 0.9 WNW 11 15 6 8 1019.0 1019.0 0.8
14/03:30pm 16.6 16.2 15.3 92 0.8 W 11 15 6 8 1018.9 1018.9 0.8
14/03:00pm 16.5 16.6 15.5 94 0.6 W 9 13 5 7 1018.8 1018.8 0.8
14/02:30pm 15.9 15.7 15.7 99 0.1 WSW 11 15 6 8 1018.8 1018.8 0.8
14/02:00pm 15.7 14.7 15.7 100 0.0 WSW 15 22 8 12 1019.0 1019.0 0.8
14/01:30pm 15.1 14.3 15.1 100 0.0 W 13 22 7 12 1019.1 1019.1 0.8
14/01:00pm 14.7 14.5 14.7 100 0.0 WSW 9 11 5 6 1019.4 1019.4 0.8
14/12:30pm 14.4 13.0 14.4 100 0.0 WSW 15 20 8 11 1019.7 1019.7 0.6
14/12:00pm 14.2 13.1 14.2 100 0.0 WSW 13 17 7 9 1019.9 1019.9 0.4
14/11:30am 14.5 11.8 14.5 100 0.0 WSW 22 30 12 16 1020.1 1020.1 0.0
14/11:00am 16.3 13.1 14.3 88 1.1 WNW 24 32 13 17 1020.1 1020.1 0.0
14/10:30am 17.0 14.4 15.0 88 1.2 WNW 22 30 12 16 1020.1 1020.1 0.0
14/10:00am 16.6 14.1 15.1 91 0.9 WNW 22 30 12 16 1019.9 1019.9 0.0
14/09:30am 16.2 14.3 15.1 93 0.6 WNW 19 28 10 15 1019.7 1019.7 0.0
14/09:00am 15.8 13.9 15.2 96 0.3 WNW 19 24 10 13 1019.4 1019.4 0.6
14/08:30am 15.6 13.1 14.1 91 0.8 WNW 20 30 11 16 1019.2 1019.2 0.6
14/08:00am 15.2 12.5 13.6 90 0.9 WNW 20 28 11 15 1019.0 1019.0 0.6
14/07:30am 15.0 11.8 13.2 89 1.0 WNW 22 28 12 15 1018.9 1018.9 0.6
14/07:00am 15.1 12.4 13.6 91 0.8 WNW 20 28 11 15 1018.6 1018.6 0.6
14/06:30am 15.0 11.9 13.4 90 0.9 WNW 22 30 12 16 1018.4 1018.4 0.6
14/06:00am 14.9 12.3 13.8 93 0.6 WNW 20 28 11 15 1018.2 1018.2 0.6
14/05:30am 15.0 12.4 13.7 92 0.7 WNW 20 30 11 16 1018.1 1018.1 0.6
14/05:00am 14.9 11.9 13.6 92 0.7 WNW 22 28 12 15 1018.0 1018.0 0.6
14/04:30am 15.1 12.1 13.8 92 0.7 W 22 30 12 16 1018.1 1018.1 0.6
14/04:00am 15.2 11.9 14.1 93 0.6 W 24 32 13 17 1018.2 1018.2 0.6
14/03:30am 15.1 11.8 14.0 93 0.6 W 24 32 13 17 1018.3 1018.3 0.6
14/03:00am 15.2 11.5 13.9 92 0.7 W 26 32 14 17 1018.4 1018.4 0.6
14/02:30am 15.1 11.4 14.0 93 0.6 W 26 33 14 18 1018.3 1018.3 0.6
14/02:00am 15.2 11.3 14.4 95 0.5 W 28 39 15 21 1018.3 1018.3 0.6
14/01:30am 14.7 12.0 14.7 100 0.0 WNW 22 32 12 17 1018.4 1018.4 0.6
14/01:00am 15.1 12.2 15.1 100 0.0 W 24 33 13 18 1018.6 1018.6 0.6
14/12:30am 14.7 12.0 14.7 100 0.0 WNW 22 32 12 17 1018.7 1018.7 0.6
14/12:00am 14.6 11.1 14.6 100 0.0 NW 26 32 14 17 1018.9 1018.9 0.4
 
Date/Time
CST
Temp
°C
App
Temp
°C
Dew
Point
°C
Rel
Hum
%
Delta-T
°C
Wind Press
QNH
hPa
Press
MSL
hPa
Rain since
9am
mm
Dir  Spd
km/h
Gust
km/h
Spd
kts
Gust
kts
13/11:30pm 15.4 13.2 14.8 96 0.3 WNW 20 30 11 16 1019.0 1019.0 0.2
13/11:00pm 15.0 13.3 14.7 98 0.2 WNW 17 24 9 13 1019.0 1019.0 0.2
13/10:30pm 14.9 12.0 14.1 95 0.5 WNW 22 30 12 16 1019.1 1019.1 0.2
13/10:00pm 15.5 12.2 14.0 91 0.8 WNW 24 32 13 17 1019.2 1019.2 0.2
13/09:30pm 15.3 12.3 13.8 91 0.8 WNW 22 33 12 18 1019.2 1019.2 0.2
13/09:00pm 15.2 11.3 13.2 88 1.1 WNW 26 33 14 18 1019.2 1019.2 0.2
13/08:30pm 15.2 12.1 13.4 89 1.0 WNW 22 30 12 16 1019.1 1019.1 0.2
13/08:00pm 15.3 11.8 13.3 88 1.1 WNW 24 32 13 17 1019.0 1019.0 0.2
13/07:30pm 15.4 11.9 13.4 88 1.1 WNW 24 32 13 17 1019.0 1019.0 0.2
13/07:00pm 15.3 12.5 13.2 87 1.2 WNW 20 28 11 15 1018.8 1018.8 0.2
13/06:30pm 15.5 12.4 13.3 87 1.2 WNW 22 32 12 17 1018.4 1018.4 0.2
13/06:00pm 15.3 11.6 12.8 85 1.4 WNW 24 30 13 16 1018.0 1018.0 0.2
13/05:30pm 15.2 11.8 12.5 84 1.5 WNW 22 32 12 17 1017.9 1017.9 0.2
13/05:00pm 15.4 12.1 12.9 85 1.4 WNW 22 32 12 17 1018.0 1018.0 0.2
13/04:30pm 15.5 11.9 13.2 86 1.3 WNW 24 32 13 17 1017.9 1017.9 0.2
13/04:00pm 15.4 11.9 13.4 88 1.1 WNW 24 37 13 20 1017.8 1017.8 0.2
13/03:30pm 16.7 12.9 12.5 76 2.3 WNW 24 33 13 18 1017.8 1017.8 0.2
13/03:00pm 16.3 12.2 12.8 80 1.9 WNW 26 32 14 17 1017.8 1017.8 0.2
13/02:30pm 16.8 13.2 12.9 78 2.2 WNW 24 30 13 16 1017.5 1017.5 0.2
13/02:00pm 17.1 13.6 13.4 79 2.1 WNW 24 30 13 16 1017.5 1017.5 0.2
13/01:30pm 17.5 14.7 13.2 76 2.4 WNW 20 28 11 15 1017.7 1017.7 0.2
13/01:00pm 17.4 14.5 12.9 75 2.5 W 20 30 11 16 1018.0 1018.0 0.2
13/12:30pm 17.5 14.3 13.2 76 2.4 W 22 30 12 16 1018.3 1018.3 0.0
13/12:00pm 17.4 13.6 13.5 78 2.2 W 26 33 14 18 1018.8 1018.8 0.0
13/11:30am 16.9 12.8 12.6 76 2.4 W 26 33 14 18 1019.3 1019.3 0.0
13/11:00am 16.6 11.8 12.8 78 2.1 W 30 37 16 20 1019.1 1019.1 0.0
13/10:30am 16.2 12.6 13.1 82 1.7 W 24 33 13 18 1018.8 1018.8 0.0
13/10:00am 15.7 12.8 14.1 90 0.9 W 22 32 12 17 1018.5 1018.5 0.0
13/09:30am 15.6 12.9 14.5 93 0.6 W 22 30 12 16 1018.2 1018.2 0.0
13/09:00am 14.7 11.6 14.5 99 0.1 W 24 32 13 17 1018.0 1018.0 0.2
13/08:30am 13.8 10.4 13.8 100 0.0 WSW 24 33 13 18 1017.6 1017.6 0.2

Other formats

Comma delimited format used in spreadsheet applications
http://www.bom.gov.au/fwo/IDS60801/IDS60801.95649.axf

JavaScript Object Notation format (JSON) in row-major order
http://www.bom.gov.au/fwo/IDS60801/IDS60801.95649.json

Data quality

Most of these data are generated automatically and are frequently updated. Quality checks on data are not normally performed. It is possible for incorrect values to appear. Refer to information at About Latest Weather Observations and please check the disclaimer before using these data.